Terminal Aerodrome Forecast
Issued by NWS

Home | Current Version | Previous Version | Text Only | Print | Product List | Glossary On
Versions: 1 2 3 4 5 6 7 8 9 10 11 12 13 14 15 16 17 18 19 20 21 22 23 24 25 26 27 28 29 30 31 32 33 34 35 36 37 38 39 40 41 42
000
FTUS43 KDDC 280608 AAA
TAFHYS
TAF AMD
KHYS 280608Z 2806/2906 10013KT P6SM -RA BKN008 BKN014 OVC040
     FM280900 14009KT P6SM VCTS BKN003CB
     FM281200 18006KT P6SM BKN003
     FM282000 30006KT P6SM BKN090
     FM290500 03012KT P6SM OVC003=

USA.gov is the U.S. government's official web portal to all federal, state and local government web resources and services.